createdAt,value
2023-03-20T00:00:42.389Z,100661.88
2023-03-20T00:03:44.387Z,100671.06
2023-03-20T00:06:45.966Z,100664.78
2023-03-20T00:09:48.464Z,100660.34
2023-03-20T00:12:50.316Z,100660.34
2023-03-20T00:15:52.079Z,100666.78
2023-03-20T00:18:53.627Z,100660.50
2023-03-20T00:21:55.719Z,100655.22
2023-03-20T00:24:57.202Z,100652.69
2023-03-20T00:27:58.702Z,100659.97
2023-03-20T00:31:00.236Z,100665.41
2023-03-20T00:34:10.175Z,100667.28
2023-03-20T00:37:12.569Z,100669.13
2023-03-20T00:40:14.973Z,100663.69
2023-03-20T00:43:17.790Z,100665.56
2023-03-20T00:46:20.836Z,100661.13
2023-03-20T00:49:27.972Z,100657.44
2023-03-20T00:52:29.851Z,100652.13
2023-03-20T00:55:31.521Z,100659.44
2023-03-20T00:58:33.019Z,100653.16
2023-03-20T01:01:34.700Z,100655.03
2023-03-20T01:04:39.003Z,100659.44
2023-03-20T01:07:40.561Z,100657.75
2023-03-20T01:10:44.108Z,100664.03
2023-03-20T01:13:45.728Z,100657.91
2023-03-20T01:16:47.535Z,100652.47
2023-03-20T01:19:49.356Z,100662.50
2023-03-20T01:22:51.071Z,100664.34
2023-03-20T01:25:52.767Z,100661.63
2023-03-20T01:28:54.391Z,100655.34
2023-03-20T01:31:56.433Z,100652.63
2023-03-20T01:35:00.334Z,100660.75
2023-03-20T01:38:01.868Z,100659.91
2023-03-20T01:41:06.725Z,100666.19
2023-03-20T01:44:20.087Z,100680.66
2023-03-20T01:47:25.860Z,100683.38
2023-03-20T01:50:33.059Z,100685.22
2023-03-20T01:53:40.463Z,100689.97
2023-03-20T01:56:51.414Z,100684.38
2023-03-20T02:00:03.973Z,100696.06
2023-03-20T02:03:18.671Z,100694.53
2023-03-20T02:06:40.241Z,100706.28
2023-03-20T02:09:52.128Z,100706.28
2023-03-20T02:13:03.875Z,100712.69
2023-03-20T02:16:17.914Z,100711.84
2023-03-20T02:19:46.701Z,100720.69
2023-03-20T02:23:30.557Z,100726.28
2023-03-20T02:26:55.155Z,100729.84
2023-03-20T02:30:18.332Z,100725.44
2023-03-20T02:33:57.022Z,100719.16
2023-03-20T02:37:13.752Z,100718.44
2023-03-20T02:40:25.477Z,100709.28
2023-03-20T02:43:36.321Z,100706.56
2023-03-20T02:47:13.306Z,100694.84
2023-03-20T02:50:27.206Z,100703.19
2023-03-20T02:54:01.351Z,100690.44
2023-03-20T02:57:12.397Z,100692.47
2023-03-20T03:00:23.609Z,100695.03
2023-03-20T03:03:39.890Z,100690.75
2023-03-20T03:06:45.974Z,100696.19
2023-03-20T03:09:58.666Z,100697.03
2023-03-20T03:13:03.376Z,100698.03
2023-03-20T03:16:17.056Z,100695.31
2023-03-20T03:19:23.436Z,100697.19
2023-03-20T03:22:25.939Z,100688.19
2023-03-20T03:25:33.025Z,100689.03
2023-03-20T03:28:40.674Z,100690.06
2023-03-20T03:31:44.728Z,100696.50
2023-03-20T03:34:46.819Z,100701.91
2023-03-20T03:38:13.066Z,100702.78
2023-03-20T03:41:46.270Z,100701.06
2023-03-20T03:44:59.840Z,100698.22
2023-03-20T03:48:26.456Z,100701.91
2023-03-20T03:51:34.899Z,100702.94
2023-03-20T03:54:53.915Z,100699.38
2023-03-20T03:58:09.979Z,100701.91
2023-03-20T04:01:14.415Z,100709.22
2023-03-20T04:04:16.981Z,100705.66
2023-03-20T04:07:18.762Z,100713.81
2023-03-20T04:10:20.635Z,100710.94
2023-03-20T04:13:22.224Z,100711.78
2023-03-20T04:16:25.726Z,100704.34
2023-03-20T04:19:27.976Z,100704.16
2023-03-20T04:22:29.581Z,100699.44
2023-03-20T04:25:37.755Z,100695.56
2023-03-20T04:28:39.520Z,100696.25
2023-03-20T04:31:59.924Z,100691.66
2023-03-20T04:35:21.705Z,100689.66
2023-03-20T04:38:26.390Z,100688.47
2023-03-20T04:41:29.399Z,100678.31
2023-03-20T04:44:32.664Z,100677.28
2023-03-20T04:47:36.611Z,100685.28
2023-03-20T04:50:39.280Z,100681.41
2023-03-20T04:53:41.023Z,100676.81
2023-03-20T04:56:42.656Z,100676.63
2023-03-20T04:59:50.442Z,100675.63
2023-03-20T05:02:52.701Z,100672.75
2023-03-20T05:05:54.236Z,100677.34
2023-03-20T05:08:56.178Z,100672.75
2023-03-20T05:11:58.129Z,100668.34
2023-03-20T05:15:31.943Z,100666.47
2023-03-20T05:18:53.713Z,100661.22
2023-03-20T05:22:22.838Z,100665.78
2023-03-20T05:25:53.715Z,100667.81
2023-03-20T05:29:13.722Z,100678.69
2023-03-20T05:32:15.580Z,100673.25
2023-03-20T05:35:36.234Z,100665.09
2023-03-20T05:38:57.053Z,100671.53
2023-03-20T05:42:17.192Z,100680.00
2023-03-20T05:45:36.919Z,100689.84
2023-03-20T05:49:14.305Z,100688.16
2023-03-20T05:52:34.261Z,100683.75
2023-03-20T05:55:46.192Z,100693.72
2023-03-20T05:59:06.492Z,100687.44
2023-03-20T06:02:28.260Z,100690.03
2023-03-20T06:05:40.165Z,100679.16
2023-03-20T06:08:42.623Z,100679.84
2023-03-20T06:11:44.133Z,100685.97
2023-03-20T06:14:46.590Z,100685.97
2023-03-20T06:17:48.403Z,100688.53
2023-03-20T06:20:54.736Z,100689.38
2023-03-20T06:23:57.998Z,100692.09
2023-03-20T06:26:59.695Z,100696.69
2023-03-20T06:30:02.123Z,100691.25
2023-03-20T06:33:07.887Z,100703.81
2023-03-20T06:36:26.372Z,100701.25
2023-03-20T06:39:34.567Z,100704.81
2023-03-20T06:42:36.544Z,100714.00
2023-03-20T06:45:40.656Z,100715.69
2023-03-20T06:48:52.106Z,100716.72
2023-03-20T06:51:53.984Z,100724.88
2023-03-20T06:54:59.846Z,100729.44
2023-03-20T06:58:02.457Z,100728.56
2023-03-20T07:01:10.971Z,100728.56
2023-03-20T07:04:12.738Z,100725.16
2023-03-20T07:07:21.567Z,100727.88
2023-03-20T07:10:23.635Z,100720.75
2023-03-20T07:13:28.299Z,100729.94
2023-03-20T07:16:32.015Z,100731.75
2023-03-20T07:19:34.214Z,100727.22
2023-03-20T07:22:36.696Z,100727.22
2023-03-20T07:25:53.222Z,100729.94
2023-03-20T07:28:55.204Z,100731.94
2023-03-20T07:32:01.124Z,100737.53
2023-03-20T07:35:09.340Z,100733.97
2023-03-20T07:38:13.487Z,100741.25
2023-03-20T07:41:27.986Z,100755.84
2023-03-20T07:44:37.592Z,100757.69
2023-03-20T07:47:45.631Z,100763.13
2023-03-20T07:50:47.395Z,100758.72
2023-03-20T07:53:49.389Z,100763.13
2023-03-20T07:56:51.007Z,100756.00
2023-03-20T07:59:52.640Z,100761.44
2023-03-20T08:02:54.266Z,100758.03
2023-03-20T08:05:55.907Z,100752.59
2023-03-20T08:08:57.697Z,100757.19
2023-03-20T08:11:59.224Z,100756.34
2023-03-20T08:15:00.682Z,100759.03
2023-03-20T08:18:03.170Z,100764.47
2023-03-20T08:21:05.058Z,100759.19
2023-03-20T08:24:06.930Z,100767.34
2023-03-20T08:27:08.532Z,100759.19
2023-03-20T08:30:10.728Z,100759.19
2023-03-20T08:33:13.447Z,100760.88
2023-03-20T08:36:16.105Z,100755.63
2023-03-20T08:39:17.681Z,100763.78
2023-03-20T08:42:19.400Z,100761.38
2023-03-20T08:45:21.493Z,100759.66
2023-03-20T08:48:23.410Z,100760.50
2023-03-20T08:51:25.369Z,100773.41
2023-03-20T08:54:27.153Z,100780.41
2023-03-20T08:57:28.732Z,100786.25
2023-03-20T09:00:30.534Z,100783.44
2023-03-20T09:03:32.083Z,100776.91
2023-03-20T09:06:36.959Z,100779.13
2023-03-20T09:09:38.487Z,100782.31
2023-03-20T09:12:40.071Z,100779.50
2023-03-20T09:15:42.259Z,100781.38
2023-03-20T09:18:43.811Z,100782.72
2023-03-20T09:21:46.190Z,100785.00
2023-03-20T09:24:47.718Z,100794.72
2023-03-20T09:27:55.368Z,100797.00
2023-03-20T09:30:58.235Z,100793.72
2023-03-20T09:34:00.131Z,100789.44
2023-03-20T09:37:03.209Z,100787.88
2023-03-20T09:40:05.645Z,100779.44
2023-03-20T09:43:15.649Z,100783.38
2023-03-20T09:46:20.465Z,100786.78
2023-03-20T09:49:34.130Z,100785.44
2023-03-20T09:52:37.620Z,100784.38
2023-03-20T09:55:44.309Z,100780.06
2023-03-20T09:58:54.619Z,100785.09
2023-03-20T10:02:19.940Z,100791.25
2023-03-20T10:05:31.181Z,100789.72
2023-03-20T10:08:38.244Z,100783.66
2023-03-20T10:12:11.046Z,100790.25
2023-03-20T10:15:31.913Z,100795.25
2023-03-20T10:18:37.620Z,100796.41
2023-03-20T10:21:46.481Z,100793.88
2023-03-20T10:24:51.271Z,100795.88
2023-03-20T10:28:00.431Z,100800.16
2023-03-20T10:31:21.323Z,100794.88
2023-03-20T10:34:25.852Z,100799.72
2023-03-20T10:37:38.469Z,100795.44
2023-03-20T10:40:42.107Z,100790.75
2023-03-20T10:43:47.283Z,100797.16
2023-03-20T10:46:53.519Z,100792.44
2023-03-20T10:50:02.398Z,100787.84
2023-03-20T10:53:06.622Z,100784.22
2023-03-20T10:56:17.223Z,100786.06
2023-03-20T10:59:40.311Z,100781.59
2023-03-20T11:02:42.346Z,100785.59
2023-03-20T11:05:55.484Z,100782.13
2023-03-20T11:09:20.912Z,100786.81
2023-03-20T11:12:22.412Z,100775.66
2023-03-20T11:15:32.484Z,100771.34
2023-03-20T11:18:34.452Z,100766.31
2023-03-20T11:21:46.404Z,100762.31
2023-03-20T11:24:52.717Z,100758.31
2023-03-20T11:27:55.222Z,100758.13
2023-03-20T11:31:21.478Z,100755.28
2023-03-20T11:34:31.013Z,100757.19
2023-03-20T11:37:36.264Z,100761.38
2023-03-20T11:40:38.645Z,100754.91
2023-03-20T11:43:41.678Z,100745.41
2023-03-20T11:46:44.393Z,100746.75
2023-03-20T11:49:47.884Z,100744.38
2023-03-20T11:52:49.440Z,100746.94
2023-03-20T11:56:21.040Z,100734.53
2023-03-20T11:59:26.209Z,100739.00
2023-03-20T12:02:27.822Z,100738.56
2023-03-20T12:05:33.430Z,100735.03
2023-03-20T12:08:39.519Z,100726.19
2023-03-20T12:11:49.353Z,100721.78
2023-03-20T12:15:04.747Z,100722.75
2023-03-20T12:18:16.419Z,100728.34
2023-03-20T12:21:20.979Z,100716.78
2023-03-20T12:24:36.797Z,100721.16
2023-03-20T12:27:48.647Z,100717.63
2023-03-20T12:31:14.099Z,100718.78
2023-03-20T12:34:22.128Z,100709.78
2023-03-20T12:37:23.765Z,100716.31
2023-03-20T12:40:46.077Z,100723.44
2023-03-20T12:44:13.502Z,100719.97
2023-03-20T12:47:14.910Z,100714.09
2023-03-20T12:50:36.475Z,100720.63
2023-03-20T12:53:53.131Z,100710.19
2023-03-20T12:56:54.538Z,100709.75
2023-03-20T13:00:12.709Z,100714.44
2023-03-20T13:03:56.932Z,100706.84
2023-03-20T13:07:02.880Z,100703.84
2023-03-20T13:10:27.837Z,100699.81
2023-03-20T13:13:36.496Z,100693.56
2023-03-20T13:16:59.668Z,100689.38
2023-03-20T13:20:13.709Z,100696.34
2023-03-20T13:23:31.528Z,100691.63
2023-03-20T13:26:39.608Z,100687.06
2023-03-20T13:30:03.431Z,100680.66
2023-03-20T13:33:36.098Z,100683.06
2023-03-20T13:37:21.935Z,100683.06
2023-03-20T13:40:30.322Z,100681.06
2023-03-20T13:43:35.265Z,100684.75
2023-03-20T13:46:41.489Z,100689.00
2023-03-20T13:50:06.079Z,100673.59
2023-03-20T13:53:18.026Z,100675.31
2023-03-20T13:56:37.650Z,100668.88
2023-03-20T13:59:47.786Z,100674.28
2023-03-20T14:03:10.964Z,100673.13
2023-03-20T14:06:17.128Z,100669.72
2023-03-20T14:09:32.440Z,100669.56
2023-03-20T14:12:34.115Z,100671.44
2023-03-20T14:15:39.415Z,100666.03
2023-03-20T14:18:44.086Z,100666.88
2023-03-20T14:21:47.821Z,100670.44
2023-03-20T14:25:17.330Z,100674.88
2023-03-20T14:28:18.752Z,100661.31
2023-03-20T14:31:27.019Z,100661.97
2023-03-20T14:34:48.259Z,100669.97
2023-03-20T14:38:14.757Z,100666.25
2023-03-20T14:41:26.829Z,100664.53
2023-03-20T14:44:49.976Z,100663.53
2023-03-20T14:47:51.414Z,100668.28
2023-03-20T14:51:25.080Z,100663.38
2023-03-20T14:54:29.490Z,100677.97
2023-03-20T14:57:45.481Z,100673.22
2023-03-20T15:00:54.659Z,100658.09
2023-03-20T15:04:04.525Z,100666.94
2023-03-20T15:07:21.354Z,100669.84
2023-03-20T15:10:24.671Z,100673.38
2023-03-20T15:13:27.517Z,100667.13
2023-03-20T15:16:31.779Z,100669.97
2023-03-20T15:19:35.687Z,100660.97
2023-03-20T15:22:48.517Z,100662.09
2023-03-20T15:25:50.794Z,100664.75
2023-03-20T15:29:00.680Z,100665.22
2023-03-20T15:32:13.808Z,100666.25
2023-03-20T15:35:21.543Z,100667.84
2023-03-20T15:38:29.839Z,100673.59
2023-03-20T15:41:34.464Z,100671.72
2023-03-20T15:44:38.239Z,100669.19
2023-03-20T15:47:42.487Z,100667.75
2023-03-20T15:50:49.459Z,100664.06
2023-03-20T15:53:51.065Z,100662.22
2023-03-20T15:56:54.582Z,100661.97
2023-03-20T15:59:56.302Z,100653.56
2023-03-20T16:03:01.209Z,100651.69
2023-03-20T16:06:03.157Z,100658.41
2023-03-20T16:09:08.037Z,100660.97
2023-03-20T16:12:15.962Z,100656.25
2023-03-20T16:15:19.168Z,100651.69
2023-03-20T16:18:21.855Z,100654.16
2023-03-20T16:21:30.264Z,100654.81
2023-03-20T16:24:38.247Z,100655.84
2023-03-20T16:27:41.277Z,100656.13
2023-03-20T16:30:42.875Z,100650.84
2023-03-20T16:33:45.482Z,100646.28
2023-03-20T16:36:59.075Z,100650.13
2023-03-20T16:40:18.607Z,100645.72
2023-03-20T16:43:27.800Z,100655.13
2023-03-20T16:46:29.401Z,100654.00
2023-03-20T16:49:49.295Z,100646.03
2023-03-20T16:52:58.565Z,100642.91
2023-03-20T16:56:04.715Z,100636.91
2023-03-20T16:59:08.860Z,100638.03
2023-03-20T17:02:29.627Z,100642.06
2023-03-20T17:05:56.618Z,100651.88
2023-03-20T17:09:08.128Z,100661.66
2023-03-20T17:12:17.584Z,100652.53
2023-03-20T17:15:22.550Z,100644.97
2023-03-20T17:18:24.074Z,100640.53
2023-03-20T17:21:25.831Z,100640.38
2023-03-20T17:24:27.410Z,100649.31
2023-03-20T17:27:29.594Z,100653.72
2023-03-20T17:30:31.192Z,100654.81
2023-03-20T17:33:33.648Z,100651.22
2023-03-20T17:36:35.725Z,100656.75
2023-03-20T17:39:37.382Z,100663.28
2023-03-20T17:42:39.654Z,100654.53
2023-03-20T17:45:42.119Z,100664.78
2023-03-20T17:48:43.922Z,100667.72
2023-03-20T17:51:45.836Z,100664.75
2023-03-20T17:54:47.399Z,100658.00
2023-03-20T17:57:49.252Z,100662.13
2023-03-20T18:00:52.555Z,100664.53
2023-03-20T18:03:54.399Z,100667.78
2023-03-20T18:06:55.966Z,100665.75
2023-03-20T18:09:57.454Z,100672.75
2023-03-20T18:12:59.538Z,100667.88
2023-03-20T18:16:01.075Z,100674.38
2023-03-20T18:19:03.465Z,100673.81
2023-03-20T18:22:05.173Z,100674.22
2023-03-20T18:25:06.875Z,100664.72
2023-03-20T18:28:18.364Z,100663.56
2023-03-20T18:31:20.884Z,100675.97
2023-03-20T18:34:22.547Z,100670.41
2023-03-20T18:37:24.021Z,100670.41
2023-03-20T18:40:36.989Z,100664.44
2023-03-20T18:43:41.969Z,100667.31
2023-03-20T18:46:43.653Z,100659.47
2023-03-20T18:49:45.269Z,100669.09
2023-03-20T18:52:46.839Z,100661.69
2023-03-20T18:55:48.332Z,100665.72
2023-03-20T18:58:49.875Z,100668.09
2023-03-20T19:01:52.815Z,100658.09
2023-03-20T19:04:54.352Z,100650.66
2023-03-20T19:07:56.464Z,100645.97
2023-03-20T19:10:58.023Z,100635.00
2023-03-20T19:13:59.573Z,100641.09
2023-03-20T19:17:01.071Z,100632.81
2023-03-20T19:20:02.653Z,100635.22
2023-03-20T19:23:08.099Z,100631.50
2023-03-20T19:26:24.439Z,100637.59
2023-03-20T19:29:25.996Z,100635.75
2023-03-20T19:32:27.516Z,100642.88
2023-03-20T19:38:51.785Z,100640.88
2023-03-20T19:41:53.272Z,100638.16
2023-03-20T19:44:54.762Z,100649.72
2023-03-20T19:47:57.458Z,100630.56
2023-03-20T19:51:00.124Z,100635.84
2023-03-20T19:54:01.793Z,100642.94
2023-03-20T19:57:03.446Z,100643.66
2023-03-20T20:00:55.662Z,100641.66
2023-03-20T20:03:27.327Z,100650.63
2023-03-20T20:06:32.253Z,100654.06
2023-03-20T20:09:34.362Z,100648.44
2023-03-20T20:12:38.838Z,100642.03
2023-03-20T20:15:40.316Z,100643.72
2023-03-20T20:18:41.837Z,100643.72
2023-03-20T20:25:06.771Z,100638.84
2023-03-20T20:28:11.051Z,100644.09
2023-03-20T20:31:12.582Z,100645.97
2023-03-20T20:35:15.218Z,100643.97
2023-03-20T20:38:30.803Z,100644.66
2023-03-20T20:40:58.223Z,100640.09
2023-03-20T20:44:17.151Z,100636.34
2023-03-20T20:47:19.440Z,100634.47
2023-03-20T20:50:24.503Z,100631.63
2023-03-20T20:53:26.012Z,100636.19
2023-03-20T20:56:27.484Z,100630.59
2023-03-20T20:59:29.505Z,100628.75
2023-03-20T21:02:32.102Z,100632.13
2023-03-20T21:05:35.727Z,100632.84
2023-03-20T21:08:38.264Z,100633.88
2023-03-20T21:11:39.830Z,100635.56
2023-03-20T21:14:41.617Z,100635.41
2023-03-20T21:17:59.448Z,100634.38
2023-03-20T21:21:05.867Z,100640.53
2023-03-20T21:24:30.452Z,100644.25
2023-03-20T21:27:32.657Z,100641.38
2023-03-20T21:30:34.218Z,100642.38
2023-03-20T21:33:36.590Z,100645.81
2023-03-20T21:36:38.093Z,100642.22
2023-03-20T21:39:39.570Z,100640.38
2023-03-20T21:42:41.199Z,100642.91
2023-03-20T21:46:21.068Z,100640.19
2023-03-20T21:59:48.640Z,100637.47
2023-03-20T22:02:33.604Z,100631.22
2023-03-20T22:16:33.188Z,100633.91
2023-03-20T22:19:55.998Z,100630.69
2023-03-20T22:26:58.246Z,100630.94
2023-03-20T22:30:07.105Z,100641.34
2023-03-20T22:33:30.481Z,100637.09
2023-03-20T22:36:51.990Z,100635.25
2023-03-20T22:40:29.213Z,100641.09
2023-03-20T22:43:26.537Z,100638.75
2023-03-20T22:46:43.844Z,100638.47
2023-03-20T22:49:35.705Z,100632.03
2023-03-20T22:52:48.816Z,100633.59
2023-03-20T22:55:52.295Z,100631.56
2023-03-20T22:58:53.807Z,100631.56
2023-03-20T23:01:55.269Z,100635.97
2023-03-20T23:04:57.790Z,100628.69
2023-03-20T23:07:59.398Z,100631.41
2023-03-20T23:11:07.182Z,100618.72
2023-03-20T23:14:18.261Z,100624.13
2023-03-20T23:17:21.950Z,100626.84
2023-03-20T23:20:24.006Z,100617.81
2023-03-20T23:23:26.196Z,100619.56
2023-03-20T23:26:27.732Z,100616.00
2023-03-20T23:29:29.310Z,100614.28
2023-03-20T23:32:30.853Z,100616.13
2023-03-20T23:35:32.643Z,100608.84
2023-03-20T23:38:34.364Z,100608.00
2023-03-20T23:42:05.023Z,100614.44
2023-03-20T23:45:04.483Z,100604.59
2023-03-20T23:48:12.807Z,100609.03
2023-03-20T23:51:14.301Z,100598.31
2023-03-20T23:54:16.172Z,100593.91
2023-03-20T23:57:17.658Z,100589.47
